Time;durP1;ratioP1;P1;durP2;ratioP2;P2;SDS_P1;SDS_P2;PMS_P1;PMS_P2;Temp;Humidity;BMP_temperature;BMP_pressure;BME280_temperature;BME280_humidity;BME280_pressure;Samples;Min_cycle;Max_cycle;Signal;HPM_P1;HPM_P2
2023/06/02 00:01:14;;;;;;;8.93;3.40;;;;;;;;;;5061001;28;20175;-79
2023/06/02 00:03:42;;;;;;;11.87;4.00;;;;;;;;;;5110789;28;20253;-82
2023/06/02 00:06:09;;;;;;;14.37;3.80;;;;;;;;;;5077064;28;20297;-82
2023/06/02 00:08:38;;;;;;;16.70;3.77;;;;;;;;;;5060291;28;20235;-82
2023/06/02 00:11:04;;;;;;;14.18;4.28;;;;;;;;;;5109972;28;20409;-82
2023/06/02 00:13:30;;;;;;;13.83;4.10;;;;;;;;;;5094734;28;20202;-83
2023/06/02 00:15:56;;;;;;;15.20;4.15;;;;;;;;;;5059571;28;20413;-82
2023/06/02 00:18:22;;;;;;;12.32;3.72;;;;;;;;;;5059850;28;20409;-79
2023/06/02 00:20:49;;;;;;;17.98;4.00;;;;;;;;;;5060241;28;20469;-78
2023/06/02 00:23:15;;;;;;;12.02;3.97;;;;;;;;;;5060724;28;20497;-79
2023/06/02 00:25:41;;;;;;;11.77;3.50;;;;;;;;;;5059859;28;20174;-79
2023/06/02 00:28:07;;;;;;;12.00;3.72;;;;;;;;;;5110376;28;20468;-79
2023/06/02 00:30:34;;;;;;;14.33;3.67;;;;;;;;;;5110135;28;20311;-79
2023/06/02 00:33:01;;;;;;;12.13;3.70;;;;;;;;;;5076065;28;20298;-79
2023/06/02 00:35:27;;;;;;;12.73;4.40;;;;;;;;;;5093842;28;20408;-81
2023/06/02 00:37:53;;;;;;;13.77;3.97;;;;;;;;;;5056564;28;20176;-82
2023/06/02 00:40:19;;;;;;;14.13;4.00;;;;;;;;;;5076505;28;20206;-83
2023/06/02 00:42:45;;;;;;;13.20;3.37;;;;;;;;;;5059769;28;20194;-83
2023/06/02 00:45:12;;;;;;;10.97;3.37;;;;;;;;;;5075911;28;20182;-83
2023/06/02 00:47:38;;;;;;;12.23;3.60;;;;;;;;;;5105452;28;20411;-83
2023/06/02 00:50:04;;;;;;;14.17;3.70;;;;;;;;;;5079797;28;20177;-83
2023/06/02 00:52:31;;;;;;;15.00;3.77;;;;;;;;;;5068683;28;20187;-91
2023/06/02 00:54:57;;;;;;;11.57;4.10;;;;;;;;;;5078796;28;20418;-92
2023/06/02 00:57:28;;;;;;;14.57;3.83;;;;;;;;;;5077892;28;20802;-91
2023/06/02 00:59:55;;;;;;;12.30;3.50;;;;;;;;;;5075421;28;20177;-92
2023/06/02 01:02:22;;;;;;;11.50;3.63;;;;;;;;;;5066120;28;20254;-92
2023/06/02 01:04:50;;;;;;;10.97;3.43;;;;;;;;;;5080590;28;20179;-91
2023/06/02 01:07:23;;;;;;;13.97;3.63;;;;;;;;;;5068108;28;20179;-91
2023/06/02 01:09:49;;;;;;;11.23;3.73;;;;;;;;;;5069317;28;20194;-79
2023/06/02 01:12:15;;;;;;;16.15;4.25;;;;;;;;;;5044891;28;20418;-79
2023/06/02 01:14:41;;;;;;;13.00;4.10;;;;;;;;;;5057710;28;20443;-79
2023/06/02 01:17:09;;;;;;;14.03;4.33;;;;;;;;;;5056541;28;20267;-78
2023/06/02 01:19:38;;;;;;;9.20;3.53;;;;;;;;;;5075409;28;20248;-79
2023/06/02 01:22:05;;;;;;;14.23;3.87;;;;;;;;;;5075831;28;20186;-78
2023/06/02 01:24:41;;;;;;;13.30;3.80;;;;;;;;;;5074565;28;20190;-78
2023/06/02 01:27:07;;;;;;;12.73;3.90;;;;;;;;;;5057374;28;20190;-82
2023/06/02 01:29:35;;;;;;;12.67;3.90;;;;;;;;;;5065704;28;20244;-82
2023/06/02 01:32:03;;;;;;;14.17;4.50;;;;;;;;;;5093601;28;20194;-82
2023/06/02 01:34:33;;;;;;;10.03;3.83;;;;;;;;;;5102563;28;20269;-82
2023/06/02 01:36:59;;;;;;;13.93;3.80;;;;;;;;;;5075837;28;20171;-82
2023/06/02 01:39:27;;;;;;;13.93;4.53;;;;;;;;;;5085830;28;20170;-82
2023/06/02 01:41:54;;;;;;;13.03;4.10;;;;;;;;;;5098530;28;20186;-91
2023/06/02 01:44:20;;;;;;;12.87;4.13;;;;;;;;;;5084517;28;20183;-92
2023/06/02 01:46:48;;;;;;;12.50;4.23;;;;;;;;;;5098650;28;20178;-92
2023/06/02 01:49:17;;;;;;;11.87;4.20;;;;;;;;;;5083126;28;20183;-92
2023/06/02 01:51:44;;;;;;;12.83;3.80;;;;;;;;;;5097358;28;20182;-92
2023/06/02 01:54:10;;;;;;;11.50;3.80;;;;;;;;;;5096885;28;20243;-92
2023/06/02 01:56:36;;;;;;;13.60;4.10;;;;;;;;;;5093085;28;20182;-91
2023/06/02 01:59:02;;;;;;;14.57;4.03;;;;;;;;;;5063785;28;20189;-89
2023/06/02 02:01:28;;;;;;;13.30;3.60;;;;;;;;;;5079445;28;20182;-91
2023/06/02 02:03:55;;;;;;;13.33;4.27;;;;;;;;;;5079636;28;20189;-91
2023/06/02 02:06:24;;;;;;;12.73;4.20;;;;;;;;;;5097009;28;20401;-92
2023/06/02 02:08:50;;;;;;;13.43;4.00;;;;;;;;;;5079484;28;20209;-92
2023/06/02 02:11:16;;;;;;;13.30;3.77;;;;;;;;;;5079378;28;20181;-91
2023/06/02 02:13:42;;;;;;;10.97;3.67;;;;;;;;;;5062559;28;20233;-91
2023/06/02 02:16:09;;;;;;;9.70;3.50;;;;;;;;;;5079247;28;20205;-79
2023/06/02 02:18:35;;;;;;;12.37;3.63;;;;;;;;;;5062067;28;20183;-79
2023/06/02 02:21:01;;;;;;;12.53;3.47;;;;;;;;;;5046944;28;20323;-78
2023/06/02 02:23:27;;;;;;;14.30;4.10;;;;;;;;;;5076375;28;20176;-79
2023/06/02 02:25:53;;;;;;;8.93;3.50;;;;;;;;;;5042286;28;20183;-79
2023/06/02 02:28:19;;;;;;;11.23;4.00;;;;;;;;;;5041833;28;20194;-79
2023/06/02 02:30:45;;;;;;;11.60;3.07;;;;;;;;;;5058253;28;20254;-79
2023/06/02 02:33:12;;;;;;;11.90;3.93;;;;;;;;;;5042467;28;20217;-93
2023/06/02 02:35:38;;;;;;;13.33;3.90;;;;;;;;;;5042752;28;20175;-92
2023/06/02 02:38:05;;;;;;;12.70;4.03;;;;;;;;;;5058757;28;20181;-92
2023/06/02 02:40:31;;;;;;;11.40;3.50;;;;;;;;;;5042534;28;20186;-90
2023/06/02 02:42:57;;;;;;;11.77;3.87;;;;;;;;;;5058726;28;20274;-92
2023/06/02 02:45:23;;;;;;;11.53;3.67;;;;;;;;;;5042359;28;20203;-92
2023/06/02 02:47:49;;;;;;;13.77;3.90;;;;;;;;;;5076276;28;20202;-91
2023/06/02 02:50:15;;;;;;;14.33;3.67;;;;;;;;;;5049244;28;20229;-82
2023/06/02 02:52:41;;;;;;;9.23;3.60;;;;;;;;;;5043310;28;20187;-82
2023/06/02 02:55:07;;;;;;;12.80;4.00;;;;;;;;;;5081597;28;20190;-82
2023/06/02 02:57:33;;;;;;;9.03;3.40;;;;;;;;;;5071140;28;20186;-82
2023/06/02 02:59:59;;;;;;;10.60;3.40;;;;;;;;;;5073951;28;20186;-82
2023/06/02 03:02:25;;;;;;;15.50;3.97;;;;;;;;;;5058456;28;20185;-82
2023/06/02 03:04:51;;;;;;;11.60;4.00;;;;;;;;;;5080458;28;20182;-91
2023/06/02 03:07:18;;;;;;;12.53;3.83;;;;;;;;;;5096391;28;20178;-92
2023/06/02 03:09:44;;;;;;;9.77;3.60;;;;;;;;;;5078406;28;20182;-92
2023/06/02 03:12:10;;;;;;;12.50;3.93;;;;;;;;;;5077329;28;20199;-91
2023/06/02 03:14:36;;;;;;;12.87;3.93;;;;;;;;;;5074896;28;20210;-91
2023/06/02 03:17:02;;;;;;;12.83;3.70;;;;;;;;;;5074848;28;20175;-92
2023/06/02 03:19:28;;;;;;;11.27;3.50;;;;;;;;;;5058893;28;20190;-92
2023/06/02 03:21:57;;;;;;;14.93;3.40;;;;;;;;;;5074687;28;20179;-83
2023/06/02 03:24:23;;;;;;;12.73;3.70;;;;;;;;;;5075329;28;20179;-82
2023/06/02 03:26:51;;;;;;;15.27;3.67;;;;;;;;;;5073944;28;20216;-82
2023/06/02 03:29:17;;;;;;;9.20;3.27;;;;;;;;;;5096220;28;20242;-82
2023/06/02 03:31:43;;;;;;;15.40;3.53;;;;;;;;;;5097366;28;20244;-82
2023/06/02 03:34:09;;;;;;;11.80;3.50;;;;;;;;;;5097362;28;20214;-82
2023/06/02 03:36:36;;;;;;;11.03;3.50;;;;;;;;;;5097451;28;20182;-82
2023/06/02 03:39:06;;;;;;;16.00;3.60;;;;;;;;;;5097424;28;20185;-79
2023/06/02 03:41:32;;;;;;;11.67;3.83;;;;;;;;;;5080398;28;20190;-79
2023/06/02 03:43:58;;;;;;;13.10;3.30;;;;;;;;;;5097272;28;20221;-78
2023/06/02 03:46:25;;;;;;;14.07;3.47;;;;;;;;;;5059376;28;20191;-79
2023/06/02 03:48:51;;;;;;;15.77;3.83;;;;;;;;;;5057068;28;20243;-79
2023/06/02 03:51:17;;;;;;;12.73;3.83;;;;;;;;;;5040411;28;20219;-78
2023/06/02 03:53:43;;;;;;;14.33;3.73;;;;;;;;;;5052410;28;20962;-78
2023/06/02 03:56:09;;;;;;;12.63;3.23;;;;;;;;;;5077185;28;20187;-82
2023/06/02 03:58:35;;;;;;;11.77;3.30;;;;;;;;;;5076503;28;20274;-82
2023/06/02 04:01:01;;;;;;;11.70;3.20;;;;;;;;;;5062202;28;20273;-82
2023/06/02 04:03:28;;;;;;;12.23;3.20;;;;;;;;;;5063699;28;20192;-82
2023/06/02 04:05:55;;;;;;;17.43;3.47;;;;;;;;;;5045804;28;20194;-82
2023/06/02 04:08:21;;;;;;;12.17;3.47;;;;;;;;;;5054676;28;20197;-82
2023/06/02 04:10:47;;;;;;;11.33;3.13;;;;;;;;;;5058973;28;20190;-82
2023/06/02 04:13:13;;;;;;;9.27;3.13;;;;;;;;;;5059628;28;20225;-82
2023/06/02 04:15:39;;;;;;;12.97;3.70;;;;;;;;;;5077500;28;20193;-82
2023/06/02 04:18:05;;;;;;;15.83;3.70;;;;;;;;;;5058832;28;20175;-82
2023/06/02 04:20:31;;;;;;;12.17;3.50;;;;;;;;;;5056444;28;20187;-82
2023/06/02 04:22:58;;;;;;;13.30;3.60;;;;;;;;;;5073520;28;20179;-82
2023/06/02 04:25:24;;;;;;;15.90;3.73;;;;;;;;;;5093202;28;20183;-83
2023/06/02 04:27:50;;;;;;;10.37;3.80;;;;;;;;;;5093073;28;20272;-81
2023/06/02 04:30:16;;;;;;;10.07;3.97;;;;;;;;;;5085686;28;20334;-79
2023/06/02 04:32:42;;;;;;;13.67;3.63;;;;;;;;;;5039560;28;20316;-79
2023/06/02 04:35:08;;;;;;;9.27;3.30;;;;;;;;;;5053077;28;20442;-79
2023/06/02 04:37:34;;;;;;;12.57;3.92;;;;;;;;;;5048974;28;20486;-79
2023/06/02 04:40:01;;;;;;;14.53;3.90;;;;;;;;;;5038282;28;20236;-79
2023/06/02 04:42:28;;;;;;;15.20;4.10;;;;;;;;;;5074018;28;20167;-79
2023/06/02 04:44:54;;;;;;;15.07;3.37;;;;;;;;;;5056041;28;20183;-82
2023/06/02 04:47:20;;;;;;;13.27;3.27;;;;;;;;;;5074026;28;20175;-82
2023/06/02 04:49:46;;;;;;;8.83;3.20;;;;;;;;;;5039535;28;20239;-82
2023/06/02 04:52:12;;;;;;;16.30;3.93;;;;;;;;;;5039975;28;20193;-82
2023/06/02 04:54:38;;;;;;;14.03;3.90;;;;;;;;;;5075990;28;20206;-82
2023/06/02 04:57:07;;;;;;;11.40;3.30;;;;;;;;;;5063441;28;20180;-82
2023/06/02 04:59:33;;;;;;;16.50;3.30;;;;;;;;;;5036301;28;20205;-82
2023/06/02 05:02:00;;;;;;;21.47;4.53;;;;;;;;;;5039266;28;20187;-82
2023/06/02 05:04:26;;;;;;;14.40;3.63;;;;;;;;;;5039298;28;20282;-82
2023/06/02 05:06:52;;;;;;;11.90;3.63;;;;;;;;;;5047271;28;20171;-82
2023/06/02 05:09:18;;;;;;;13.63;3.40;;;;;;;;;;5056700;28;20198;-83
2023/06/02 05:11:44;;;;;;;12.87;3.87;;;;;;;;;;5041518;28;20187;-82
2023/06/02 05:14:11;;;;;;;15.17;3.90;;;;;;;;;;5070774;28;20229;-82
2023/06/02 05:16:37;;;;;;;14.50;3.33;;;;;;;;;;5063290;28;20277;-82
2023/06/02 05:19:04;;;;;;;12.03;3.47;;;;;;;;;;5079241;28;20171;-78
2023/06/02 05:21:31;;;;;;;12.10;3.43;;;;;;;;;;5078656;28;20270;-79
2023/06/02 05:23:58;;;;;;;17.13;4.07;;;;;;;;;;5077070;28;20206;-79
2023/06/02 05:26:24;;;;;;;13.77;3.30;;;;;;;;;;5059776;28;20201;-79
2023/06/02 05:28:50;;;;;;;14.40;3.57;;;;;;;;;;5042982;28;20188;-79
2023/06/02 05:31:17;;;;;;;15.10;3.87;;;;;;;;;;5059371;28;20222;-79
2023/06/02 05:33:43;;;;;;;12.77;3.50;;;;;;;;;;5040916;28;20261;-79
2023/06/02 05:36:09;;;;;;;14.63;3.30;;;;;;;;;;5040275;28;20214;-82
2023/06/02 05:38:35;;;;;;;12.60;3.20;;;;;;;;;;5042429;28;20183;-82
2023/06/02 05:41:01;;;;;;;12.23;3.43;;;;;;;;;;5042580;28;20275;-82
2023/06/02 05:43:27;;;;;;;12.53;3.37;;;;;;;;;;5076007;22;20227;-86
2023/06/02 05:45:53;;;;;;;11.30;3.57;;;;;;;;;;5078492;28;20313;-86
2023/06/02 05:48:20;;;;;;;12.63;3.37;;;;;;;;;;5062092;28;20175;-86
2023/06/02 05:50:46;;;;;;;17.00;3.37;;;;;;;;;;5078449;28;20171;-86
2023/06/02 05:53:12;;;;;;;12.63;3.13;;;;;;;;;;5072930;28;20208;-80
2023/06/02 05:55:38;;;;;;;14.33;3.23;;;;;;;;;;5094646;28;20249;-81
2023/06/02 05:58:04;;;;;;;13.23;3.17;;;;;;;;;;5074248;28;20243;-81
2023/06/02 06:00:30;;;;;;;12.00;3.07;;;;;;;;;;5064446;28;20178;-80
2023/06/02 06:02:56;;;;;;;10.70;3.20;;;;;;;;;;5052208;28;20179;-81
2023/06/02 06:05:22;;;;;;;13.97;3.37;;;;;;;;;;5079807;28;20217;-80
2023/06/02 06:07:48;;;;;;;15.60;3.77;;;;;;;;;;5070138;28;20190;-80
2023/06/02 06:10:16;;;;;;;12.23;3.40;;;;;;;;;;5072063;28;20695;-82
2023/06/02 06:12:42;;;;;;;12.03;3.20;;;;;;;;;;5078619;28;20316;-82
2023/06/02 06:15:08;;;;;;;12.50;3.20;;;;;;;;;;5062111;28;20261;-82
2023/06/02 06:17:34;;;;;;;18.70;3.60;;;;;;;;;;5062316;28;20266;-82
2023/06/02 06:20:00;;;;;;;11.18;3.35;;;;;;;;;;5078238;28;20521;-82
2023/06/02 06:22:26;;;;;;;14.97;3.60;;;;;;;;;;5078490;28;20178;-82
2023/06/02 06:24:53;;;;;;;14.40;3.20;;;;;;;;;;5061967;28;20186;-82
2023/06/02 06:27:19;;;;;;;14.17;3.57;;;;;;;;;;5062024;28;20182;-82
2023/06/02 06:29:45;;;;;;;14.87;3.30;;;;;;;;;;5078666;28;20189;-82
2023/06/02 06:32:11;;;;;;;8.87;3.07;;;;;;;;;;5078018;28;20178;-82
2023/06/02 06:34:37;;;;;;;9.20;3.20;;;;;;;;;;5072157;28;20226;-83
2023/06/02 06:37:03;;;;;;;11.07;3.40;;;;;;;;;;5075800;28;20179;-83
2023/06/02 06:39:29;;;;;;;10.23;3.20;;;;;;;;;;5061330;28;20183;-83
2023/06/02 06:41:55;;;;;;;10.67;3.07;;;;;;;;;;5061892;28;20186;-86
2023/06/02 06:44:21;;;;;;;13.10;3.50;;;;;;;;;;5066439;28;20306;-86
2023/06/02 06:46:47;;;;;;;13.20;3.40;;;;;;;;;;5073240;28;20241;-86
2023/06/02 06:49:13;;;;;;;12.53;3.87;;;;;;;;;;5075201;28;20212;-85
2023/06/02 06:51:39;;;;;;;9.07;3.13;;;;;;;;;;5049275;28;20182;-86
2023/06/02 06:54:05;;;;;;;16.37;3.43;;;;;;;;;;5061316;28;20229;-86
2023/06/02 06:56:31;;;;;;;11.03;3.13;;;;;;;;;;5061654;28;20185;-85
2023/06/02 06:58:57;;;;;;;8.23;3.23;;;;;;;;;;5061536;28;20205;-82
2023/06/02 07:01:23;;;;;;;13.93;3.60;;;;;;;;;;5061452;28;20296;-82
2023/06/02 07:03:50;;;;;;;8.43;3.13;;;;;;;;;;5077965;28;20250;-82
2023/06/02 07:06:15;;;;;;;9.63;3.23;;;;;;;;;;5061325;28;20183;-82
2023/06/02 07:08:42;;;;;;;12.67;3.50;;;;;;;;;;5069431;28;20179;-82
2023/06/02 07:11:08;;;;;;;14.30;3.83;;;;;;;;;;5061326;28;20277;-82
2023/06/02 07:13:34;;;;;;;15.00;3.20;;;;;;;;;;5077848;28;20252;-81
2023/06/02 07:16:00;;;;;;;10.83;3.37;;;;;;;;;;5061276;28;20182;-83
2023/06/02 07:18:26;;;;;;;15.70;4.00;;;;;;;;;;5077794;28;20171;-83
2023/06/02 07:20:52;;;;;;;10.30;3.43;;;;;;;;;;5060968;28;20265;-83
2023/06/02 07:23:18;;;;;;;13.27;3.40;;;;;;;;;;5054327;28;20215;-83
2023/06/02 07:25:44;;;;;;;12.87;3.10;;;;;;;;;;5057559;28;20218;-83
2023/06/02 07:28:10;;;;;;;14.73;3.57;;;;;;;;;;5040816;28;20183;-84
2023/06/02 07:30:36;;;;;;;12.10;3.70;;;;;;;;;;5057287;28;20237;-84
2023/06/02 07:33:02;;;;;;;12.23;3.30;;;;;;;;;;5057232;28;20199;-82
2023/06/02 07:35:28;;;;;;;14.53;3.03;;;;;;;;;;5040234;28;20180;-82
2023/06/02 07:37:54;;;;;;;14.33;3.40;;;;;;;;;;5058377;28;20175;-82
2023/06/02 07:40:21;;;;;;;9.97;3.50;;;;;;;;;;5074415;28;20230;-82
2023/06/02 07:42:47;;;;;;;9.37;3.07;;;;;;;;;;5076804;28;20175;-82
2023/06/02 07:45:13;;;;;;;16.20;3.43;;;;;;;;;;5077135;28;20229;-82
2023/06/02 07:47:39;;;;;;;15.43;3.43;;;;;;;;;;5077653;28;20261;-82
2023/06/02 07:50:05;;;;;;;12.93;3.50;;;;;;;;;;5077685;28;20185;-82
2023/06/02 07:52:31;;;;;;;9.83;2.97;;;;;;;;;;5061144;28;20182;-82
2023/06/02 07:54:57;;;;;;;14.87;3.30;;;;;;;;;;5060970;28;20207;-82
2023/06/02 07:57:24;;;;;;;16.03;3.50;;;;;;;;;;5061074;28;20189;-82
2023/06/02 07:59:50;;;;;;;11.73;3.30;;;;;;;;;;5057189;28;20179;-82
2023/06/02 08:02:16;;;;;;;13.30;3.67;;;;;;;;;;5057449;28;20180;-82
2023/06/02 08:04:42;;;;;;;14.43;3.60;;;;;;;;;;5075081;28;20258;-82
2023/06/02 08:07:08;;;;;;;13.17;3.63;;;;;;;;;;5076237;28;20205;-86
2023/06/02 08:09:34;;;;;;;13.67;3.60;;;;;;;;;;5060545;28;20205;-86
2023/06/02 08:12:00;;;;;;;10.50;3.30;;;;;;;;;;5060820;28;20178;-86
2023/06/02 08:14:26;;;;;;;11.67;3.83;;;;;;;;;;5060656;28;20217;-86
2023/06/02 08:16:55;;;;;;;13.97;3.50;;;;;;;;;;5041827;28;20191;-86
2023/06/02 08:19:21;;;;;;;14.53;3.50;;;;;;;;;;5040969;28;20242;-86
2023/06/02 08:21:47;;;;;;;13.93;3.63;;;;;;;;;;5040678;28;20206;-86
2023/06/02 08:24:13;;;;;;;9.43;3.77;;;;;;;;;;5056794;28;20179;-87
2023/06/02 08:26:41;;;;;;;13.87;3.77;;;;;;;;;;5039853;28;20190;-87
2023/06/02 08:29:09;;;;;;;13.13;3.63;;;;;;;;;;5056707;28;20199;-87
2023/06/02 08:31:36;;;;;;;13.87;3.97;;;;;;;;;;5056657;28;20194;-87
2023/06/02 08:34:05;;;;;;;13.80;3.53;;;;;;;;;;5056527;28;20211;-87
2023/06/02 08:36:35;;;;;;;11.87;3.60;;;;;;;;;;5056928;28;20214;-87
2023/06/02 08:39:06;;;;;;;13.87;3.40;;;;;;;;;;5056550;28;20175;-87
2023/06/02 08:41:36;;;;;;;11.97;3.60;;;;;;;;;;5040814;28;20186;-87
2023/06/02 08:44:02;;;;;;;10.43;3.70;;;;;;;;;;5056743;28;20223;-87
2023/06/02 08:46:29;;;;;;;10.50;3.50;;;;;;;;;;5056403;28;20172;-86
2023/06/02 08:48:58;;;;;;;10.23;3.33;;;;;;;;;;5039334;28;20193;-86
2023/06/02 08:51:24;;;;;;;11.73;3.40;;;;;;;;;;5040059;28;20207;-86
2023/06/02 08:53:50;;;;;;;11.23;3.67;;;;;;;;;;5039579;28;20256;-86
2023/06/02 08:56:16;;;;;;;8.53;3.30;;;;;;;;;;5057703;28;20175;-91
2023/06/02 08:58:46;;;;;;;15.37;3.83;;;;;;;;;;5057981;28;20176;-90
2023/06/02 09:01:12;;;;;;;14.00;4.17;;;;;;;;;;5057770;28;20230;-89
2023/06/02 09:03:40;;;;;;;12.53;3.70;;;;;;;;;;5042028;28;20183;-89
2023/06/02 09:06:26;;;;;;;13.63;3.77;;;;;;;;;;5056795;28;20206;-90
2023/06/02 09:09:00;;;;;;;13.60;4.17;;;;;;;;;;5056742;28;20266;-90
2023/06/02 09:11:30;;;;;;;8.53;3.67;;;;;;;;;;5040845;28;20175;-85
2023/06/02 09:13:56;;;;;;;9.47;3.90;;;;;;;;;;5056392;28;20198;-84
2023/06/02 09:16:23;;;;;;;8.10;3.80;;;;;;;;;;5039707;28;20175;-84
2023/06/02 09:18:56;;;;;;;12.77;4.23;;;;;;;;;;5039771;28;20175;-84
2023/06/02 09:21:32;;;;;;;8.67;3.97;;;;;;;;;;5039647;28;20253;-84
2023/06/02 09:23:59;;;;;;;13.37;4.20;;;;;;;;;;5056598;28;20175;-84
2023/06/02 09:26:27;;;;;;;10.33;3.77;;;;;;;;;;5039555;28;20190;-84
2023/06/02 09:29:04;;;;;;;11.70;3.90;;;;;;;;;;5056180;28;20204;-83
2023/06/02 09:31:53;;;;;;;11.13;4.30;;;;;;;;;;5056087;28;20198;-83
2023/06/02 09:34:20;;;;;;;15.20;4.10;;;;;;;;;;5063107;28;20297;-83
2023/06/02 09:36:51;;;;;;;12.83;4.13;;;;;;;;;;5076637;28;20175;-83
2023/06/02 09:39:33;;;;;;;13.47;4.47;;;;;;;;;;5075788;28;20202;-83
2023/06/02 09:42:00;;;;;;;11.77;4.10;;;;;;;;;;5076486;28;20185;-83
2023/06/02 09:44:26;;;;;;;13.40;4.23;;;;;;;;;;5075773;28;20257;-83
2023/06/02 09:46:53;;;;;;;10.33;4.10;;;;;;;;;;5076314;28;20167;-84
2023/06/02 09:49:19;;;;;;;9.40;4.10;;;;;;;;;;5076168;28;20179;-84
2023/06/02 09:51:45;;;;;;;8.03;4.00;;;;;;;;;;5076296;28;20268;-83
2023/06/02 09:54:11;;;;;;;11.33;4.20;;;;;;;;;;5059794;28;20228;-83
2023/06/02 09:56:38;;;;;;;11.17;3.80;;;;;;;;;;5076746;28;20170;-84
2023/06/02 09:59:05;;;;;;;10.90;4.27;;;;;;;;;;5080670;28;20179;-84
2023/06/02 10:01:32;;;;;;;10.93;4.20;;;;;;;;;;5080361;28;20224;-86
2023/06/02 10:03:59;;;;;;;14.23;4.13;;;;;;;;;;5079375;28;20206;-86
2023/06/02 10:06:25;;;;;;;13.50;4.03;;;;;;;;;;5080062;28;20182;-86
2023/06/02 10:08:51;;;;;;;11.33;4.50;;;;;;;;;;5079700;28;20178;-87
2023/06/02 10:11:29;;;;;;;9.20;4.57;;;;;;;;;;5079536;28;20189;-86
2023/06/02 10:13:58;;;;;;;10.63;4.50;;;;;;;;;;5079329;28;20210;-86
2023/06/02 10:16:43;;;;;;;16.13;4.70;;;;;;;;;;5079310;28;20174;-87
2023/06/02 10:19:17;;;;;;;13.23;4.37;;;;;;;;;;5079927;28;20262;-90
2023/06/02 10:22:02;;;;;;;14.20;4.60;;;;;;;;;;5080146;28;20174;-90
2023/06/02 10:24:28;;;;;;;12.17;4.50;;;;;;;;;;5079340;28;20174;-89
2023/06/02 10:27:13;;;;;;;11.73;4.73;;;;;;;;;;5079219;28;20182;-90
2023/06/02 10:29:39;;;;;;;13.57;4.57;;;;;;;;;;5079120;28;20183;-90
2023/06/02 10:32:24;;;;;;;10.87;4.50;;;;;;;;;;5062844;28;20194;-90
2023/06/02 10:35:11;;;;;;;13.33;4.50;;;;;;;;;;5078920;28;20214;-83
2023/06/02 10:37:39;;;;;;;13.30;4.87;;;;;;;;;;5078660;28;20269;-83
2023/06/02 10:40:05;;;;;;;11.93;4.80;;;;;;;;;;5079015;28;20221;-83
2023/06/02 10:42:31;;;;;;;10.87;4.57;;;;;;;;;;5062111;28;20183;-82
2023/06/02 10:45:24;;;;;;;14.00;4.63;;;;;;;;;;5077836;28;20437;-83
2023/06/02 10:47:50;;;;;;;17.47;4.60;;;;;;;;;;5080616;28;20187;-83
2023/06/02 10:50:24;;;;;;;13.80;4.53;;;;;;;;;;5061909;28;20183;-83
2023/06/02 10:53:00;;;;;;;12.57;4.50;;;;;;;;;;5079267;28;20202;-89
2023/06/02 10:55:30;;;;;;;15.07;4.40;;;;;;;;;;5078903;28;20217;-90
2023/06/02 10:58:12;;;;;;;12.47;4.73;;;;;;;;;;5078801;28;20175;-90
2023/06/02 11:00:45;;;;;;;13.70;4.77;;;;;;;;;;5078664;28;20193;-90
2023/06/02 11:03:11;;;;;;;11.57;4.43;;;;;;;;;;5078745;28;20212;-90
2023/06/02 11:05:37;;;;;;;13.83;4.93;;;;;;;;;;5078761;28;20221;-89
2023/06/02 11:08:14;;;;;;;17.33;4.53;;;;;;;;;;5077883;28;20183;-90
2023/06/02 11:10:55;;;;;;;14.20;5.23;;;;;;;;;;5078055;28;20224;-87
2023/06/02 11:13:22;;;;;;;14.37;4.70;;;;;;;;;;5078912;28;20201;-87
2023/06/02 11:16:11;;;;;;;9.33;4.33;;;;;;;;;;5078552;28;20273;-87
2023/06/02 11:18:40;;;;;;;14.03;5.00;;;;;;;;;;5078130;28;20224;-87
2023/06/02 11:21:24;;;;;;;10.40;4.87;;;;;;;;;;5074207;28;20202;-87
2023/06/02 11:23:50;;;;;;;13.80;4.97;;;;;;;;;;5057789;28;20283;-87
2023/06/02 11:26:21;;;;;;;15.30;5.00;;;;;;;;;;5058111;28;20190;-84
2023/06/02 11:28:47;;;;;;;16.20;5.00;;;;;;;;;;5058173;28;20183;-84
2023/06/02 11:31:14;;;;;;;10.47;4.53;;;;;;;;;;5057741;28;20187;-84
2023/06/02 11:33:41;;;;;;;12.20;5.17;;;;;;;;;;5057867;28;20206;-84
2023/06/02 11:36:08;;;;;;;12.83;4.83;;;;;;;;;;5057862;28;20204;-84
2023/06/02 11:38:35;;;;;;;11.80;4.40;;;;;;;;;;5057845;28;20209;-85
2023/06/02 11:41:17;;;;;;;13.57;4.23;;;;;;;;;;5058114;28;20253;-84
2023/06/02 11:43:47;;;;;;;13.33;4.87;;;;;;;;;;5057866;28;20183;-90
2023/06/02 11:46:15;;;;;;;14.77;4.47;;;;;;;;;;5058108;28;20235;-90
2023/06/02 11:48:45;;;;;;;12.67;4.53;;;;;;;;;;5058180;28;20185;-90
2023/06/02 11:51:15;;;;;;;12.80;4.83;;;;;;;;;;5057849;28;20183;-90
2023/06/02 11:53:45;;;;;;;14.97;5.13;;;;;;;;;;5058021;28;20241;-91
2023/06/02 11:56:11;;;;;;;12.73;4.70;;;;;;;;;;5057983;28;20179;-90
2023/06/02 11:58:41;;;;;;;9.73;4.73;;;;;;;;;;5041306;28;20179;-90
2023/06/02 12:01:14;;;;;;;11.40;4.67;;;;;;;;;;5041085;28;20190;-90
2023/06/02 12:03:41;;;;;;;14.00;5.13;;;;;;;;;;5057514;28;20179;-90
2023/06/02 12:06:08;;;;;;;14.80;4.77;;;;;;;;;;5057892;28;20237;-91
2023/06/02 12:08:35;;;;;;;12.23;5.00;;;;;;;;;;5058227;28;20238;-91
2023/06/02 12:11:01;;;;;;;13.77;5.17;;;;;;;;;;5057843;28;20183;-92
2023/06/02 12:13:28;;;;;;;12.53;5.40;;;;;;;;;;5057164;28;20207;-90
2023/06/02 12:15:54;;;;;;;13.90;4.93;;;;;;;;;;5057769;28;20175;-90
2023/06/02 12:18:31;;;;;;;17.73;5.20;;;;;;;;;;5059032;28;20270;-89
2023/06/02 12:20:58;;;;;;;11.90;4.90;;;;;;;;;;5060182;28;20179;-90
2023/06/02 12:23:24;;;;;;;17.67;4.83;;;;;;;;;;5058196;28;20218;-89
2023/06/02 12:25:54;;;;;;;12.03;4.90;;;;;;;;;;5041434;28;20183;-90
2023/06/02 12:28:20;;;;;;;18.13;5.73;;;;;;;;;;5065296;28;20201;-89
2023/06/02 12:30:47;;;;;;;14.20;5.27;;;;;;;;;;5077453;28;20192;-90
2023/06/02 12:33:13;;;;;;;12.87;5.30;;;;;;;;;;5077050;28;20202;-90
2023/06/02 12:35:40;;;;;;;15.93;5.63;;;;;;;;;;5060255;28;20184;-91
2023/06/02 12:38:08;;;;;;;15.80;5.67;;;;;;;;;;5077854;28;20185;-91
2023/06/02 12:40:34;;;;;;;14.70;5.27;;;;;;;;;;5077341;28;20170;-91
2023/06/02 12:43:00;;;;;;;13.83;5.73;;;;;;;;;;5077221;28;20206;-90
2023/06/02 12:45:27;;;;;;;9.87;4.60;;;;;;;;;;5068081;28;20282;-89
2023/06/02 12:47:54;;;;;;;13.47;5.20;;;;;;;;;;5054517;28;20180;-90
2023/06/02 12:50:21;;;;;;;12.90;4.97;;;;;;;;;;5056601;28;20179;-83
2023/06/02 12:52:47;;;;;;;12.60;5.17;;;;;;;;;;5056826;28;20180;-83
2023/06/02 12:55:14;;;;;;;11.97;5.27;;;;;;;;;;5056489;28;20274;-83
2023/06/02 12:57:40;;;;;;;12.23;5.23;;;;;;;;;;5056670;28;20202;-83
2023/06/02 13:00:08;;;;;;;12.43;5.23;;;;;;;;;;5056241;28;20186;-81
2023/06/02 13:02:34;;;;;;;13.37;5.80;;;;;;;;;;5056324;28;20176;-81
2023/06/02 13:05:00;;;;;;;14.93;6.03;;;;;;;;;;5056228;28;20191;-87
2023/06/02 13:07:27;;;;;;;11.87;5.30;;;;;;;;;;5056445;28;20221;-87
2023/06/02 13:09:53;;;;;;;13.90;5.27;;;;;;;;;;5056481;28;20191;-87
2023/06/02 13:12:19;;;;;;;10.03;5.47;;;;;;;;;;5055976;28;20183;-87
2023/06/02 13:14:45;;;;;;;13.13;5.40;;;;;;;;;;5056293;28;20294;-86
2023/06/02 13:17:11;;;;;;;10.60;5.17;;;;;;;;;;5056550;28;20180;-87
2023/06/02 13:19:39;;;;;;;14.80;5.60;;;;;;;;;;5056370;28;20190;-87
2023/06/02 13:22:05;;;;;;;11.03;5.53;;;;;;;;;;5052833;28;20180;-85
2023/06/02 13:24:31;;;;;;;14.30;5.47;;;;;;;;;;5051679;28;20191;-84
2023/06/02 13:26:57;;;;;;;13.30;6.13;;;;;;;;;;5056032;28;20260;-85
2023/06/02 13:29:23;;;;;;;12.87;5.67;;;;;;;;;;5056363;28;20183;-85
2023/06/02 13:31:49;;;;;;;12.30;5.10;;;;;;;;;;5056347;28;20268;-84
2023/06/02 13:34:15;;;;;;;15.83;6.23;;;;;;;;;;5059758;28;20212;-84
2023/06/02 13:36:41;;;;;;;12.03;5.23;;;;;;;;;;5060030;28;20187;-84
2023/06/02 13:39:07;;;;;;;13.63;6.23;;;;;;;;;;5059981;28;20186;-83
2023/06/02 13:41:34;;;;;;;16.40;5.97;;;;;;;;;;5059743;28;20175;-83
2023/06/02 13:44:00;;;;;;;14.37;6.20;;;;;;;;;;5059609;28;20179;-83
2023/06/02 13:46:26;;;;;;;12.77;6.13;;;;;;;;;;5059335;28;20438;-82
2023/06/02 13:48:52;;;;;;;8.87;5.77;;;;;;;;;;5060593;28;20189;-83
2023/06/02 13:51:18;;;;;;;11.90;5.70;;;;;;;;;;5060513;28;20210;-83
2023/06/02 13:53:44;;;;;;;15.17;5.93;;;;;;;;;;5059807;28;20283;-83
2023/06/02 13:56:10;;;;;;;14.77;5.80;;;;;;;;;;5059601;28;20286;-89
2023/06/02 13:58:36;;;;;;;15.60;6.07;;;;;;;;;;5059855;28;20179;-90
2023/06/02 14:01:03;;;;;;;16.33;5.87;;;;;;;;;;5059271;28;20270;-89
2023/06/02 14:03:29;;;;;;;15.93;5.93;;;;;;;;;;5060169;28;20201;-90
2023/06/02 14:05:55;;;;;;;14.43;5.53;;;;;;;;;;5059143;28;20247;-89
2023/06/02 14:08:22;;;;;;;14.53;6.10;;;;;;;;;;5059398;28;20187;-89
2023/06/02 14:10:48;;;;;;;14.60;6.23;;;;;;;;;;5059405;28;20184;-89
2023/06/02 14:13:14;;;;;;;15.07;6.17;;;;;;;;;;5059438;28;20293;-84
2023/06/02 14:15:40;;;;;;;15.57;5.95;;;;;;;;;;5059013;28;20439;-84
2023/06/02 14:18:06;;;;;;;14.53;5.30;;;;;;;;;;5059516;28;20254;-84
2023/06/02 14:20:32;;;;;;;12.17;5.20;;;;;;;;;;5059415;28;20179;-84
2023/06/02 14:22:58;;;;;;;11.57;4.90;;;;;;;;;;5059034;28;20176;-84
2023/06/02 14:25:25;;;;;;;10.57;5.13;;;;;;;;;;5059223;28;20175;-84
2023/06/02 14:27:51;;;;;;;13.20;5.30;;;;;;;;;;5059119;28;20249;-84
2023/06/02 14:30:17;;;;;;;9.17;4.83;;;;;;;;;;5059415;28;20191;-88
2023/06/02 14:32:43;;;;;;;14.37;5.30;;;;;;;;;;5059043;28;20187;-88